Time;durP1;ratioP1;P1;durP2;ratioP2;P2;SDS_P1;SDS_P2;PMS_P1;PMS_P2;Temp;Humidity;BMP_temperature;BMP_pressure;BME280_temperature;BME280_humidity;BME280_pressure;Samples;Min_cycle;Max_cycle;Signal;HPM_P1;HPM_P2
2023/04/09 00:01:22;;;;;;;5.03;2.92;;;;;;;;;;6236756;23;20095;-60
2023/04/09 00:03:56;;;;;;;4.18;2.60;;;;;;;;;;6236862;23;20085;-60
2023/04/09 00:06:23;;;;;;;6.32;2.97;;;;;;;;;;6238012;23;20082;-60
2023/04/09 00:08:57;;;;;;;4.30;2.80;;;;;;;;;;6240004;23;20024;-60
2023/04/09 00:11:24;;;;;;;4.88;3.15;;;;;;;;;;6237625;23;20028;-57
2023/04/09 00:13:52;;;;;;;5.25;2.97;;;;;;;;;;6237975;22;20028;-51
2023/04/09 00:16:32;;;;;;;4.70;3.00;;;;;;;;;;6238764;23;20067;-56
2023/04/09 00:18:59;;;;;;;5.63;3.15;;;;;;;;;;6238209;23;20051;-56
2023/04/09 00:21:33;;;;;;;4.45;2.75;;;;;;;;;;6238991;23;20410;-55
2023/04/09 00:24:00;;;;;;;4.13;2.95;;;;;;;;;;6239121;23;20112;-52
2023/04/09 00:26:34;;;;;;;5.95;3.00;;;;;;;;;;6238872;23;20023;-55
2023/04/09 00:29:01;;;;;;;5.18;3.00;;;;;;;;;;6238780;23;20419;-54
2023/04/09 00:31:29;;;;;;;3.92;2.67;;;;;;;;;;6239068;23;20028;-56
2023/04/09 00:34:04;;;;;;;6.28;3.08;;;;;;;;;;6236672;23;20035;-56
2023/04/09 00:36:31;;;;;;;4.63;2.88;;;;;;;;;;6239071;23;20020;-56
2023/04/09 00:39:05;;;;;;;5.70;3.10;;;;;;;;;;6240007;23;20063;-60
2023/04/09 00:41:32;;;;;;;6.97;3.00;;;;;;;;;;6237683;23;20060;-60
2023/04/09 00:43:59;;;;;;;6.63;3.83;;;;;;;;;;6237674;23;20142;-61
2023/04/09 00:46:33;;;;;;;5.38;3.05;;;;;;;;;;6239653;23;20054;-60
2023/04/09 00:49:00;;;;;;;5.80;3.05;;;;;;;;;;6237623;23;20028;-60
2023/04/09 00:51:35;;;;;;;6.45;3.58;;;;;;;;;;6238808;23;20352;-60
2023/04/09 00:54:02;;;;;;;7.95;3.70;;;;;;;;;;6237898;23;20055;-60
2023/04/09 00:56:30;;;;;;;6.60;3.22;;;;;;;;;;6236262;23;20027;-60
2023/04/09 00:59:04;;;;;;;5.25;3.20;;;;;;;;;;6238202;23;20020;-60
2023/04/09 01:01:31;;;;;;;5.25;3.58;;;;;;;;;;6237833;23;20032;-62
2023/04/09 01:04:05;;;;;;;6.95;4.13;;;;;;;;;;6237566;23;20024;-57
2023/04/09 01:06:32;;;;;;;;;;;;;;;;;;6239302;23;20103;-62
2023/04/09 01:09:06;;;;;;;7.60;3.60;;;;;;;;;;6240134;23;19915;-62
2023/04/09 01:11:46;;;;;;;4.57;3.13;;;;;;;;;;6236660;23;20024;-62
2023/04/09 01:14:36;;;;;;;6.82;3.72;;;;;;;;;;6235081;22;20107;-63
2023/04/09 01:17:37;;;;;;;4.82;3.50;;;;;;;;;;6238177;23;20024;-62
2023/04/09 01:20:08;;;;;;;7.25;3.20;;;;;;;;;;6237835;23;20020;-62
2023/04/09 01:22:42;;;;;;;7.05;3.30;;;;;;;;;;6239668;23;20028;-62
2023/04/09 01:25:19;;;;;;;6.35;3.58;;;;;;;;;;6236746;23;20512;-62
2023/04/09 01:27:56;;;;;;;5.03;3.35;;;;;;;;;;6237553;23;20125;-61
2023/04/09 01:30:25;;;;;;;7.65;4.20;;;;;;;;;;6238908;23;20620;-62
2023/04/09 01:32:53;;;;;;;4.75;3.50;;;;;;;;;;6235901;23;20020;-57
2023/04/09 01:35:27;;;;;;;6.05;3.63;;;;;;;;;;6214340;23;20051;-47
2023/04/09 01:38:02;;;;;;;8.13;4.05;;;;;;;;;;6238355;23;20020;-62
2023/04/09 01:40:37;;;;;;;8.10;4.32;;;;;;;;;;6236803;23;20051;-62
2023/04/09 01:43:06;;;;;;;7.75;4.57;;;;;;;;;;6210615;23;20051;-64
2023/04/09 01:45:33;;;;;;;8.98;3.60;;;;;;;;;;6239533;23;20024;-62
2023/04/09 01:48:07;;;;;;;6.88;3.60;;;;;;;;;;6236150;23;20095;-62
2023/04/09 01:50:41;;;;;;;8.15;4.15;;;;;;;;;;6213434;23;20052;-48
2023/04/09 01:53:08;;;;;;;6.25;3.85;;;;;;;;;;6237103;23;20127;-47
2023/04/09 01:55:36;;;;;;;8.13;4.07;;;;;;;;;;6237736;23;20431;-47
2023/04/09 01:58:09;;;;;;;9.25;4.38;;;;;;;;;;6238372;23;20106;-51
2023/04/09 02:00:40;;;;;;;7.00;4.63;;;;;;;;;;6237755;23;20491;-49
2023/04/09 02:03:20;;;;;;;6.40;4.53;;;;;;;;;;6236473;23;20052;-60
2023/04/09 02:06:02;;;;;;;11.80;4.40;;;;;;;;;;6238335;23;20335;-53
2023/04/09 02:08:37;;;;;;;7.57;4.65;;;;;;;;;;6236683;23;20123;-53
2023/04/09 02:11:09;;;;;;;7.50;4.63;;;;;;;;;;6238050;23;20020;-49
2023/04/09 02:13:43;;;;;;;5.93;3.88;;;;;;;;;;6237353;22;20028;-49
2023/04/09 02:16:17;;;;;;;8.13;4.97;;;;;;;;;;6236031;23;20027;-53
2023/04/09 02:18:55;;;;;;;7.40;4.40;;;;;;;;;;6236052;23;20019;-49
2023/04/09 02:21:23;;;;;;;11.93;4.85;;;;;;;;;;6238249;23;20354;-61
2023/04/09 02:23:50;;;;;;;13.60;5.07;;;;;;;;;;6209693;23;20185;-60
2023/04/09 02:26:24;;;;;;;9.10;4.50;;;;;;;;;;6238539;23;20028;-61
2023/04/09 02:28:51;;;;;;;8.38;4.50;;;;;;;;;;6237341;23;20398;-61
2023/04/09 02:31:25;;;;;;;7.07;4.18;;;;;;;;;;6238127;23;20024;-57
2023/04/09 02:33:53;;;;;;;8.60;4.65;;;;;;;;;;6237341;23;20059;-57
2023/04/09 02:36:20;;;;;;;;;;;;;;;;;;6239198;23;20047;-59
2023/04/09 02:38:54;;;;;;;7.20;4.22;;;;;;;;;;6236857;23;19920;-59
2023/04/09 02:41:21;;;;;;;9.93;4.97;;;;;;;;;;6237092;23;20062;-58
2023/04/09 02:43:55;;;;;;;7.85;4.95;;;;;;;;;;6237085;23;20099;-56
2023/04/09 02:46:22;;;;;;;11.25;5.35;;;;;;;;;;6236732;23;20095;-54
2023/04/09 02:48:49;;;;;;;8.25;5.03;;;;;;;;;;6237702;23;20032;-62
2023/04/09 02:51:23;;;;;;;8.82;5.10;;;;;;;;;;6236530;23;20051;-62
2023/04/09 02:53:50;;;;;;;7.35;4.45;;;;;;;;;;6236250;23;20102;-62
2023/04/09 02:56:24;;;;;;;9.68;4.85;;;;;;;;;;6237746;23;20016;-62
2023/04/09 02:58:52;;;;;;;8.93;5.15;;;;;;;;;;6236377;23;20030;-63
2023/04/09 03:01:20;;;;;;;8.05;4.88;;;;;;;;;;6235556;23;20484;-61
2023/04/09 03:03:54;;;;;;;11.88;4.70;;;;;;;;;;6211522;23;20097;-61
2023/04/09 03:06:21;;;;;;;7.97;4.88;;;;;;;;;;6237983;23;20020;-61
2023/04/09 03:08:55;;;;;;;10.27;5.28;;;;;;;;;;6236458;23;20139;-60
2023/04/09 03:11:22;;;;;;;9.40;5.13;;;;;;;;;;6237911;23;20020;-60
2023/04/09 03:13:49;;;;;;;9.82;5.28;;;;;;;;;;6235108;22;20027;-61
2023/04/09 03:16:33;;;;;;;8.52;5.07;;;;;;;;;;6234646;23;20020;-61
2023/04/09 03:19:00;;;;;;;7.45;4.72;;;;;;;;;;6236486;23;20556;-61
2023/04/09 03:21:34;;;;;;;10.25;4.75;;;;;;;;;;6237888;23;20020;-61
2023/04/09 03:24:02;;;;;;;10.35;4.50;;;;;;;;;;6235142;23;20023;-61
2023/04/09 03:26:34;;;;;;;8.65;4.90;;;;;;;;;;6236190;23;20039;-45
2023/04/09 03:29:09;;;;;;;8.77;5.35;;;;;;;;;;6236917;23;20107;-63
2023/04/09 03:31:36;;;;;;;9.38;5.32;;;;;;;;;;6236612;23;20024;-61
2023/04/09 03:34:03;;;;;;;8.10;4.97;;;;;;;;;;6236535;23;20050;-61
2023/04/09 03:36:37;;;;;;;8.93;5.10;;;;;;;;;;6238369;23;20103;-61
2023/04/09 03:39:04;;;;;;;9.20;5.18;;;;;;;;;;6235685;23;20103;-61
2023/04/09 03:41:38;;;;;;;8.30;4.90;;;;;;;;;;6237693;23;20020;-61
2023/04/09 03:44:05;;;;;;;12.75;5.30;;;;;;;;;;6235993;23;20119;-61
2023/04/09 03:46:32;;;;;;;8.23;4.60;;;;;;;;;;6237247;23;20102;-53
2023/04/09 03:49:07;;;;;;;10.35;4.68;;;;;;;;;;6236244;23;20028;-54
2023/04/09 03:51:34;;;;;;;;;;;;;;;;;;6238427;23;20096;-49
2023/04/09 03:54:07;;;;;;;9.60;4.78;;;;;;;;;;6234888;23;19915;-52
2023/04/09 03:56:34;;;;;;;10.55;4.15;;;;;;;;;;6238302;23;20430;-52
2023/04/09 03:59:01;;;;;;;7.70;4.78;;;;;;;;;;6235813;23;20353;-60
2023/04/09 04:01:35;;;;;;;12.45;5.55;;;;;;;;;;6236731;23;20020;-60
2023/04/09 04:04:02;;;;;;;;;;;;;;;;;;6236712;23;20436;-60
2023/04/09 04:06:36;;;;;;;9.10;4.90;;;;;;;;;;6238277;23;19922;-59
2023/04/09 04:09:03;;;;;;;9.48;5.63;;;;;;;;;;6235685;23;20028;-60
2023/04/09 04:11:30;;;;;;;7.75;4.93;;;;;;;;;;6235733;23;20535;-59
2023/04/09 04:14:04;;;;;;;10.30;5.82;;;;;;;;;;6236990;22;20062;-60
2023/04/09 04:16:39;;;;;;;8.73;5.32;;;;;;;;;;6236440;23;20122;-60
2023/04/09 04:19:13;;;;;;;11.30;5.72;;;;;;;;;;6237018;23;20397;-59
2023/04/09 04:21:40;;;;;;;9.75;5.25;;;;;;;;;;6236454;23;20465;-57
2023/04/09 04:24:07;;;;;;;8.55;5.22;;;;;;;;;;6235714;23;20066;-56
2023/04/09 04:26:48;;;;;;;8.90;5.40;;;;;;;;;;6237874;23;20058;-51
2023/04/09 04:29:15;;;;;;;10.88;5.70;;;;;;;;;;6236461;23;20107;-53
2023/04/09 04:31:49;;;;;;;9.52;5.25;;;;;;;;;;6234541;23;20465;-49
2023/04/09 04:34:16;;;;;;;10.30;4.82;;;;;;;;;;6237043;23;20058;-47
2023/04/09 04:36:44;;;;;;;9.60;5.45;;;;;;;;;;6237051;23;20023;-46
2023/04/09 04:39:17;;;;;;;9.15;5.60;;;;;;;;;;6236901;23;20116;-51
2023/04/09 04:41:44;;;;;;;11.40;5.32;;;;;;;;;;6235236;23;20078;-63
2023/04/09 04:44:18;;;;;;;10.52;5.95;;;;;;;;;;6236443;23;20025;-62
2023/04/09 04:46:45;;;;;;;13.35;5.55;;;;;;;;;;6236081;23;20144;-62
2023/04/09 04:49:12;;;;;;;9.60;5.72;;;;;;;;;;6236697;23;20034;-62
2023/04/09 04:51:46;;;;;;;12.90;5.90;;;;;;;;;;6236448;23;20020;-61
2023/04/09 04:54:13;;;;;;;10.38;5.85;;;;;;;;;;6238923;23;20429;-47
2023/04/09 04:56:47;;;;;;;8.70;5.30;;;;;;;;;;6237566;23;20347;-47
2023/04/09 04:59:15;;;;;;;9.10;5.38;;;;;;;;;;6237377;23;20108;-49
2023/04/09 05:01:42;;;;;;;9.10;4.97;;;;;;;;;;6237750;23;20099;-48
2023/04/09 05:04:15;;;;;;;14.25;5.22;;;;;;;;;;6237223;23;20047;-46
2023/04/09 05:06:42;;;;;;;9.02;5.05;;;;;;;;;;6238644;23;20789;-46
2023/04/09 05:09:16;;;;;;;12.50;4.80;;;;;;;;;;6238152;23;20063;-48
2023/04/09 05:11:43;;;;;;;6.35;3.95;;;;;;;;;;6239254;23;20103;-60
2023/04/09 05:14:11;;;;;;;8.57;4.93;;;;;;;;;;6236356;22;20159;-58
2023/04/09 05:16:52;;;;;;;7.28;4.38;;;;;;;;;;6238679;23;20028;-60
2023/04/09 05:19:19;;;;;;;6.88;3.85;;;;;;;;;;6237500;23;20028;-60
2023/04/09 05:21:56;;;;;;;11.52;4.97;;;;;;;;;;6239432;23;20026;-56
2023/04/09 05:24:23;;;;;;;8.18;5.35;;;;;;;;;;6237297;23;20070;-55
2023/04/09 05:26:50;;;;;;;8.10;5.15;;;;;;;;;;6238034;23;20339;-56
2023/04/09 05:29:24;;;;;;;7.60;4.75;;;;;;;;;;6237157;23;20030;-53
2023/04/09 05:31:51;;;;;;;11.73;5.35;;;;;;;;;;6236677;23;20473;-51
2023/04/09 05:34:25;;;;;;;8.88;4.65;;;;;;;;;;6237672;23;20358;-56
2023/04/09 05:36:53;;;;;;;;;;;;;;;;;;6237707;23;20020;-52
2023/04/09 05:39:20;;;;;;;9.02;4.82;;;;;;;;;;6238047;23;20406;-49
2023/04/09 05:41:53;;;;;;;7.75;4.10;;;;;;;;;;6238735;23;20026;-48
2023/04/09 05:44:20;;;;;;;6.82;4.22;;;;;;;;;;6237112;23;20099;-48
2023/04/09 05:46:54;;;;;;;7.82;4.25;;;;;;;;;;6237491;23;20091;-46
2023/04/09 05:49:21;;;;;;;6.50;4.57;;;;;;;;;;6237766;23;20099;-53
2023/04/09 05:51:49;;;;;;;6.60;4.25;;;;;;;;;;6238552;23;20091;-46
2023/04/09 05:54:24;;;;;;;7.28;4.50;;;;;;;;;;6238728;23;20135;-47
2023/04/09 05:56:58;;;;;;;8.27;4.63;;;;;;;;;;6211886;23;20099;-45
2023/04/09 05:59:31;;;;;;;9.55;5.70;;;;;;;;;;6237557;23;20024;-46
2023/04/09 06:01:59;;;;;;;13.57;6.85;;;;;;;;;;6237099;23;20047;-52
2023/04/09 06:04:33;;;;;;;9.38;4.45;;;;;;;;;;6236520;23;20020;-46
2023/04/09 06:07:07;;;;;;;9.45;4.70;;;;;;;;;;6238647;23;20458;-52
2023/04/09 06:09:43;;;;;;;7.93;5.00;;;;;;;;;;6237267;23;20038;-48
2023/04/09 06:12:10;;;;;;;8.77;5.22;;;;;;;;;;6233688;23;20027;-51
2023/04/09 06:14:37;;;;;;;10.27;5.53;;;;;;;;;;6233508;22;20039;-45
2023/04/09 06:17:18;;;;;;;11.27;5.63;;;;;;;;;;6235532;23;20521;-61
2023/04/09 06:19:45;;;;;;;14.15;6.00;;;;;;;;;;6237347;23;20410;-49
2023/04/09 06:22:19;;;;;;;11.73;6.50;;;;;;;;;;6236251;23;20024;-52
2023/04/09 06:24:46;;;;;;;12.55;6.07;;;;;;;;;;6237751;23;20404;-53
2023/04/09 06:27:13;;;;;;;9.48;6.25;;;;;;;;;;6236991;23;20060;-57
2023/04/09 06:29:47;;;;;;;10.40;6.00;;;;;;;;;;6236703;23;20074;-52
2023/04/09 06:32:14;;;;;;;10.57;6.38;;;;;;;;;;6233839;23;20020;-52
2023/04/09 06:34:48;;;;;;;11.30;5.57;;;;;;;;;;6235313;23;20100;-57
2023/04/09 06:37:16;;;;;;;9.55;5.85;;;;;;;;;;6239155;23;20056;-61
2023/04/09 06:39:43;;;;;;;11.45;6.35;;;;;;;;;;6238570;23;20658;-61
2023/04/09 06:42:26;;;;;;;10.50;5.47;;;;;;;;;;6237210;23;20035;-61
2023/04/09 06:44:54;;;;;;;10.75;6.07;;;;;;;;;;6239038;23;20027;-61
2023/04/09 06:47:27;;;;;;;9.95;5.75;;;;;;;;;;6239228;23;20123;-53
2023/04/09 06:49:54;;;;;;;14.98;7.20;;;;;;;;;;6238295;23;20031;-59
2023/04/09 06:52:21;;;;;;;11.48;6.38;;;;;;;;;;6238865;23;20052;-59
2023/04/09 06:54:55;;;;;;;9.45;5.60;;;;;;;;;;6237039;23;20030;-58
2023/04/09 06:57:22;;;;;;;13.05;5.63;;;;;;;;;;6235767;23;20059;-60
2023/04/09 06:59:56;;;;;;;15.88;5.47;;;;;;;;;;6236451;23;20099;-57
2023/04/09 07:02:23;;;;;;;10.63;5.68;;;;;;;;;;6233670;23;20070;-58
2023/04/09 07:04:51;;;;;;;9.95;4.95;;;;;;;;;;6231870;23;20512;-52
2023/04/09 07:07:25;;;;;;;16.27;5.93;;;;;;;;;;6235482;23;20592;-60
2023/04/09 07:09:53;;;;;;;9.00;5.38;;;;;;;;;;6236539;23;20020;-60
2023/04/09 07:12:30;;;;;;;8.20;4.70;;;;;;;;;;6236761;23;20017;-61
2023/04/09 07:15:04;;;;;;;9.38;5.68;;;;;;;;;;6235389;22;20038;-59
2023/04/09 07:17:45;;;;;;;9.75;5.85;;;;;;;;;;6236301;23;20091;-59
2023/04/09 07:20:12;;;;;;;10.65;5.45;;;;;;;;;;6235050;23;20028;-59
2023/04/09 07:22:46;;;;;;;8.02;5.53;;;;;;;;;;6234663;23;20078;-56
2023/04/09 07:25:14;;;;;;;9.88;5.40;;;;;;;;;;6236304;23;20410;-60
2023/04/09 07:27:42;;;;;;;11.25;5.00;;;;;;;;;;6235715;23;20111;-51
2023/04/09 07:30:16;;;;;;;8.38;5.15;;;;;;;;;;6235940;23;20036;-55
2023/04/09 07:32:44;;;;;;;9.30;4.53;;;;;;;;;;6235070;23;20020;-57
2023/04/09 07:35:11;;;;;;;7.13;4.13;;;;;;;;;;6231440;23;20028;-56
2023/04/09 07:37:45;;;;;;;6.35;4.30;;;;;;;;;;6230970;23;20055;-57
2023/04/09 07:40:12;;;;;;;7.75;3.88;;;;;;;;;;6237436;23;20059;-55
2023/04/09 07:42:47;;;;;;;6.97;3.95;;;;;;;;;;6235848;23;20449;-59
2023/04/09 07:45:14;;;;;;;6.95;3.78;;;;;;;;;;6234910;23;20020;-57
2023/04/09 07:47:41;;;;;;;5.60;3.78;;;;;;;;;;6234606;23;20283;-56
2023/04/09 07:50:15;;;;;;;5.63;3.58;;;;;;;;;;6234589;23;20028;-55
2023/04/09 07:52:42;;;;;;;10.02;3.88;;;;;;;;;;6236516;23;20103;-56
2023/04/09 07:55:17;;;;;;;5.18;3.08;;;;;;;;;;6235126;23;20095;-56
2023/04/09 07:57:44;;;;;;;5.93;3.60;;;;;;;;;;6234490;23;20571;-58
2023/04/09 08:00:12;;;;;;;9.18;2.90;;;;;;;;;;6234246;23;20067;-59
2023/04/09 08:02:45;;;;;;;8.27;2.90;;;;;;;;;;6233106;23;20496;-59
2023/04/09 08:05:13;;;;;;;6.90;3.40;;;;;;;;;;6232857;23;20063;-58
2023/04/09 08:07:40;;;;;;;5.45;3.38;;;;;;;;;;6232880;23;20099;-59
2023/04/09 08:10:15;;;;;;;5.50;3.13;;;;;;;;;;6233100;23;20024;-58
2023/04/09 08:12:42;;;;;;;4.30;2.60;;;;;;;;;;6231807;23;20058;-59
2023/04/09 08:15:23;;;;;;;3.83;2.33;;;;;;;;;;6234808;22;20046;-58
2023/04/09 08:17:50;;;;;;;4.88;2.22;;;;;;;;;;6231756;23;20114;-53
2023/04/09 08:20:24;;;;;;;7.68;2.72;;;;;;;;;;6232438;23;20024;-59
2023/04/09 08:22:52;;;;;;;3.67;2.08;;;;;;;;;;6234046;23;20026;-53
2023/04/09 08:25:19;;;;;;;3.90;2.15;;;;;;;;;;6234542;23;20800;-50
2023/04/09 08:27:53;;;;;;;3.05;2.15;;;;;;;;;;6234395;23;20023;-57
2023/04/09 08:30:20;;;;;;;4.47;2.53;;;;;;;;;;6235301;23;20024;-57
2023/04/09 08:32:54;;;;;;;3.55;2.10;;;;;;;;;;6237693;23;20404;-55
2023/04/09 08:35:22;;;;;;;2.10;1.60;;;;;;;;;;6235195;23;20039;-55
2023/04/09 08:37:49;;;;;;;1.98;1.50;;;;;;;;;;6235503;23;20260;-59
2023/04/09 08:40:22;;;;;;;1.73;1.23;;;;;;;;;;6235521;23;20111;-58
2023/04/09 08:42:54;;;;;;;2.10;1.40;;;;;;;;;;6237276;23;20027;-60
2023/04/09 08:45:21;;;;;;;3.08;1.42;;;;;;;;;;6236531;23;20473;-59
2023/04/09 08:47:58;;;;;;;2.17;1.40;;;;;;;;;;6237078;23;20051;-59
2023/04/09 08:50:26;;;;;;;2.30;1.42;;;;;;;;;;6237108;23;20031;-59
2023/04/09 08:52:54;;;;;;;1.83;1.40;;;;;;;;;;6237362;23;20047;-60
2023/04/09 08:55:27;;;;;;;1.58;1.23;;;;;;;;;;6238446;23;20024;-61
2023/04/09 08:57:55;;;;;;;2.53;1.80;;;;;;;;;;6237782;23;20126;-61
2023/04/09 09:00:22;;;;;;;;;;;;;;;;;;6238735;23;20098;-59
2023/04/09 09:03:11;;;;;;;2.33;1.50;;;;;;;;;;6236186;23;20367;-59
2023/04/09 09:05:46;;;;;;;2.03;1.40;;;;;;;;;;6237481;23;20032;-59
2023/04/09 09:08:13;;;;;;;;;;;;;;;;;;6238729;23;20224;-59
2023/04/09 09:10:42;;;;;;;1.98;1.40;;;;;;;;;;6236950;23;20005;-60
2023/04/09 09:13:16;;;;;;;2.53;1.63;;;;;;;;;;6234702;23;20425;-61
2023/04/09 09:15:43;;;;;;;1.88;1.27;;;;;;;;;;6204134;23;20044;-58
2023/04/09 09:18:43;;;;;;;2.65;1.20;;;;;;;;;;6207248;23;20017;-58
2023/04/09 09:21:18;;;;;;;1.33;1.10;;;;;;;;;;6207120;23;20029;-59
2023/04/09 09:23:51;;;;;;;1.75;1.23;;;;;;;;;;6206552;23;20031;-59
2023/04/09 09:26:20;;;;;;;1.27;1.02;;;;;;;;;;6205827;23;20932;-58
2023/04/09 09:28:57;;;;;;;1.38;1.27;;;;;;;;;;6206368;23;20139;-59
2023/04/09 09:31:25;;;;;;;1.20;1.08;;;;;;;;;;6207025;23;20466;-59
2023/04/09 09:33:52;;;;;;;3.13;1.45;;;;;;;;;;6205906;23;20473;-56
2023/04/09 09:36:33;;;;;;;2.67;1.38;;;;;;;;;;6206962;23;20020;-60
2023/04/09 09:39:08;;;;;;;1.80;1.20;;;;;;;;;;6206407;23;20107;-59
2023/04/09 09:41:43;;;;;;;1.65;1.00;;;;;;;;;;6206117;23;20046;-59
2023/04/09 09:44:10;;;;;;;1.05;0.88;;;;;;;;;;6205949;23;20361;-60
2023/04/09 09:46:39;;;;;;;2.85;1.70;;;;;;;;;;6207496;23;20031;-59
2023/04/09 09:49:13;;;;;;;2.33;1.00;;;;;;;;;;6205962;23;20024;-56
2023/04/09 09:51:40;;;;;;;2.67;1.08;;;;;;;;;;6207375;23;20078;-59
2023/04/09 09:54:17;;;;;;;3.38;1.30;;;;;;;;;;6201339;23;20091;-61
2023/04/09 09:56:45;;;;;;;1.45;1.05;;;;;;;;;;6205911;23;20219;-61
2023/04/09 09:59:12;;;;;;;1.35;1.00;;;;;;;;;;6204994;23;20096;-61
2023/04/09 10:01:47;;;;;;;2.13;1.15;;;;;;;;;;6206923;23;20052;-61
2023/04/09 10:04:15;;;;;;;1.20;1.00;;;;;;;;;;6204555;23;20047;-60
2023/04/09 10:06:50;;;;;;;2.67;1.10;;;;;;;;;;6206711;23;20032;-61
2023/04/09 10:09:20;;;;;;;1.20;0.93;;;;;;;;;;6205345;23;20035;-58
2023/04/09 10:11:48;;;;;;;1.83;1.30;;;;;;;;;;6207422;23;20523;-59
2023/04/09 10:14:23;;;;;;;2.53;1.40;;;;;;;;;;6206145;23;20025;-59
2023/04/09 10:16:50;;;;;;;1.30;1.20;;;;;;;;;;6203270;23;20052;-59
2023/04/09 10:19:30;;;;;;;1.52;1.30;;;;;;;;;;6203473;23;20024;-59
2023/04/09 10:22:01;;;;;;;1.52;1.30;;;;;;;;;;6203709;23;20476;-60
2023/04/09 10:24:35;;;;;;;1.45;0.93;;;;;;;;;;6205405;23;20117;-61
2023/04/09 10:27:12;;;;;;;2.05;1.08;;;;;;;;;;6203849;23;20083;-59
2023/04/09 10:29:54;;;;;;;2.13;1.33;;;;;;;;;;6204089;23;20469;-59
2023/04/09 10:32:34;;;;;;;1.42;1.23;;;;;;;;;;6205615;23;20103;-59
2023/04/09 10:35:08;;;;;;;1.83;1.25;;;;;;;;;;6206395;23;20095;-59
2023/04/09 10:37:49;;;;;;;1.10;1.00;;;;;;;;;;6208371;23;20107;-60
2023/04/09 10:40:23;;;;;;;1.52;1.17;;;;;;;;;;6207484;23;20099;-59
2023/04/09 10:42:57;;;;;;;1.60;1.30;;;;;;;;;;6207272;23;20091;-59
2023/04/09 10:45:41;;;;;;;1.55;1.33;;;;;;;;;;6207007;23;20103;-59
2023/04/09 10:48:18;;;;;;;1.67;1.20;;;;;;;;;;6203827;23;20537;-58
2023/04/09 10:50:52;;;;;;;1.30;1.13;;;;;;;;;;6207713;23;20340;-59
2023/04/09 10:53:23;;;;;;;2.22;1.30;;;;;;;;;;6205848;23;20048;-59
2023/04/09 10:55:51;;;;;;;1.38;1.27;;;;;;;;;;6207852;23;20024;-60
2023/04/09 10:58:25;;;;;;;1.27;1.10;;;;;;;;;;6207527;23;20020;-59
2023/04/09 11:00:52;;;;;;;;;;;;;;;;;;6207505;23;20235;-59
2023/04/09 11:03:30;;;;;;;1.55;1.13;;;;;;;;;;6205841;23;19951;-59
2023/04/09 11:06:00;;;;;;;1.63;1.08;;;;;;;;;;6205779;23;20027;-61
2023/04/09 11:08:33;;;;;;;1.77;1.33;;;;;;;;;;6206634;23;20067;-61
2023/04/09 11:11:01;;;;;;;1.20;1.10;;;;;;;;;;6206632;23;20067;-61
2023/04/09 11:13:29;;;;;;;1.40;0.98;;;;;;;;;;6207100;23;20021;-55
2023/04/09 11:16:10;;;;;;;1.17;1.00;;;;;;;;;;6218395;23;20063;-56
2023/04/09 11:18:49;;;;;;;2.13;1.10;;;;;;;;;;6236312;23;20027;-55
2023/04/09 11:21:45;;;;;;;1.85;1.17;;;;;;;;;;6235865;23;20024;-58
2023/04/09 13:22:59;;;;;;;3.65;0.98;;;;;;;;;;5830124;22;8286973;-61
2023/04/09 13:25:33;;;;;;;2.13;1.00;;;;;;;;;;6183927;23;20021;-61
2023/04/09 13:28:00;;;;;;;1.75;1.20;;;;;;;;;;6185197;23;20100;-61
2023/04/09 13:30:27;;;;;;;1.92;1.08;;;;;;;;;;6183393;23;20542;-61
2023/04/09 13:33:01;;;;;;;1.45;0.77;;;;;;;;;;6185246;23;20047;-61
2023/04/09 13:35:29;;;;;;;3.17;1.27;;;;;;;;;;6184143;23;20021;-55
2023/04/09 13:38:03;;;;;;;1.10;1.00;;;;;;;;;;6173437;23;20484;-54
2023/04/09 13:40:30;;;;;;;1.10;1.10;;;;;;;;;;6173763;23;20109;-55
2023/04/09 13:42:57;;;;;;;1.05;0.95;;;;;;;;;;6174629;23;20362;-56
2023/04/09 13:45:31;;;;;;;1.80;1.00;;;;;;;;;;6174027;23;20100;-60
2023/04/09 13:47:58;;;;;;;1.65;1.15;;;;;;;;;;6175822;23;20025;-61
2023/04/09 13:50:32;;;;;;;1.65;0.98;;;;;;;;;;6175069;23;20092;-56
2023/04/09 13:53:02;;;;;;;1.20;1.10;;;;;;;;;;6175217;23;20132;-56
2023/04/09 13:55:29;;;;;;;2.28;1.20;;;;;;;;;;6174600;23;20111;-56
2023/04/09 13:58:03;;;;;;;1.23;1.10;;;;;;;;;;6174467;23;20025;-52
2023/04/09 14:00:30;;;;;;;1.48;1.05;;;;;;;;;;6173020;23;20025;-56
2023/04/09 14:03:04;;;;;;;1.75;1.38;;;;;;;;;;6174476;23;20421;-57
2023/04/09 14:05:31;;;;;;;1.20;1.02;;;;;;;;;;6174234;23;20025;-56
2023/04/09 14:07:58;;;;;;;2.13;1.13;;;;;;;;;;6172179;23;20104;-56
2023/04/09 14:10:32;;;;;;;1.42;1.00;;;;;;;;;;6174765;23;20401;-56
2023/04/09 14:13:00;;;;;;;1.20;1.10;;;;;;;;;;6175290;23;20057;-57
2023/04/09 14:15:34;;;;;;;1.27;0.88;;;;;;;;;;6171978;23;20200;-61
2023/04/09 14:18:01;;;;;;;2.40;0.90;;;;;;;;;;6175267;23;20021;-61
2023/04/09 14:20:29;;;;;;;1.40;0.90;;;;;;;;;;6174320;23;20036;-61
2023/04/09 14:23:09;;;;;;;3.13;1.10;;;;;;;;;;6172743;23;20107;-61
2023/04/09 14:25:37;;;;;;;2.53;0.95;;;;;;;;;;6174939;23;20031;-61
2023/04/09 14:28:10;;;;;;;1.40;1.00;;;;;;;;;;6175154;23;20021;-61
2023/04/09 14:30:37;;;;;;;1.70;0.93;;;;;;;;;;6172472;23;20025;-61
2023/04/09 14:33:05;;;;;;;1.60;0.70;;;;;;;;;;6174978;23;20077;-56
2023/04/09 14:35:39;;;;;;;1.48;0.90;;;;;;;;;;6175122;23;20025;-55
2023/04/09 14:38:08;;;;;;;1.23;1.00;;;;;;;;;;6171379;23;20407;-54
2023/04/09 14:40:42;;;;;;;1.40;0.90;;;;;;;;;;6174099;23;20488;-57
2023/04/09 14:43:09;;;;;;;2.35;1.45;;;;;;;;;;6174984;23;20109;-61
2023/04/09 14:45:36;;;;;;;1.70;1.10;;;;;;;;;;6174407;23;20025;-61
2023/04/09 14:48:10;;;;;;;0.80;0.73;;;;;;;;;;6173128;23;20061;-61
2023/04/09 14:50:37;;;;;;;1.67;1.58;;;;;;;;;;6175174;23;20048;-61
2023/04/09 14:53:11;;;;;;;1.30;0.90;;;;;;;;;;6175720;23;20020;-61
2023/04/09 14:55:38;;;;;;;1.20;1.10;;;;;;;;;;6173925;23;20025;-61
2023/04/09 14:58:06;;;;;;;1.35;1.25;;;;;;;;;;6173044;23;20379;-61
2023/04/09 15:00:40;;;;;;;1.92;1.15;;;;;;;;;;6173697;23;20079;-56
2023/04/09 15:03:07;;;;;;;;;;;;;;;;;;6173337;23;20021;-51
2023/04/09 15:05:35;;;;;;;1.83;0.90;;;;;;;;;;6174908;23;20266;-56
2023/04/09 15:08:09;;;;;;;1.38;0.90;;;;;;;;;;6173301;23;20483;-56
2023/04/09 15:10:36;;;;;;;1.52;1.10;;;;;;;;;;6147543;23;20068;-60
2023/04/09 15:13:10;;;;;;;2.28;1.05;;;;;;;;;;6173992;23;20130;-59
2023/04/09 15:15:40;;;;;;;1.20;1.10;;;;;;;;;;6173348;23;20087;-57
2023/04/09 15:18:07;;;;;;;1.25;1.15;;;;;;;;;;6174064;23;20084;-57
2023/04/09 15:20:48;;;;;;;2.28;1.70;;;;;;;;;;6172213;23;20104;-57
2023/04/09 15:23:22;;;;;;;1.65;1.27;;;;;;;;;;6148606;23;20027;-57
2023/04/09 15:25:55;;;;;;;2.70;1.65;;;;;;;;;;6173570;23;20354;-57
2023/04/09 15:28:22;;;;;;;3.47;1.55;;;;;;;;;;6173782;23;20049;-57
2023/04/09 15:30:49;;;;;;;2.92;1.08;;;;;;;;;;6174860;23;20025;-60
2023/04/09 15:33:23;;;;;;;1.92;1.40;;;;;;;;;;6173294;23;20039;-60
2023/04/09 15:35:50;;;;;;;3.03;1.30;;;;;;;;;;6174467;23;20112;-60
2023/04/09 15:38:24;;;;;;;1.98;1.30;;;;;;;;;;6172539;23;20028;-60
2023/04/09 15:40:52;;;;;;;3.97;1.45;;;;;;;;;;6148577;23;20025;-54
2023/04/09 15:43:19;;;;;;;4.30;1.55;;;;;;;;;;6173195;23;20266;-56
2023/04/09 15:45:53;;;;;;;2.97;1.50;;;;;;;;;;6171753;23;20537;-53
2023/04/09 15:48:20;;;;;;;3.50;1.50;;;;;;;;;;6174420;23;20025;-56
2023/04/09 15:50:54;;;;;;;2.00;1.50;;;;;;;;;;6175318;23;20049;-56
2023/04/09 15:53:25;;;;;;;1.45;1.35;;;;;;;;;;6148181;23;20096;-56
2023/04/09 15:55:52;;;;;;;3.15;2.03;;;;;;;;;;6174659;23;20346;-54
2023/04/09 15:58:26;;;;;;;4.75;1.50;;;;;;;;;;6177148;23;20569;-61
2023/04/09 16:00:53;;;;;;;1.98;1.38;;;;;;;;;;6175832;23;20060;-60
2023/04/09 16:03:28;;;;;;;2.17;1.42;;;;;;;;;;6173687;23;20501;-61
2023/04/09 16:05:55;;;;;;;2.67;1.80;;;;;;;;;;6175682;23;20048;-60
2023/04/09 16:08:22;;;;;;;1.73;1.50;;;;;;;;;;6175938;23;20093;-53
2023/04/09 16:10:56;;;;;;;3.25;1.40;;;;;;;;;;6176501;23;20021;-59
2023/04/09 16:13:23;;;;;;;1.95;1.42;;;;;;;;;;6173923;23;20075;-59
2023/04/09 16:15:57;;;;;;;1.88;1.38;;;;;;;;;;6173072;23;20116;-59
2023/04/09 16:18:25;;;;;;;2.22;1.65;;;;;;;;;;6172425;23;20025;-59
2023/04/09 16:20:52;;;;;;;;;;;;;;;;;;6173226;23;20025;-59
2023/04/09 16:23:33;;;;;;;2.92;1.50;;;;;;;;;;6169515;23;19962;-59
2023/04/09 16:26:00;;;;;;;2.47;1.70;;;;;;;;;;6173359;23;20025;-60
2023/04/09 16:28:35;;;;;;;2.40;1.42;;;;;;;;;;6172530;23;20095;-60
2023/04/09 16:31:02;;;;;;;;;;;;;;;;;;6172303;23;20779;-60
2023/04/09 16:33:29;;;;;;;2.50;1.73;;;;;;;;;;6170590;23;20325;-60
2023/04/09 16:36:10;;;;;;;3.05;1.80;;;;;;;;;;6169015;23;20730;-53
2023/04/09 16:38:37;;;;;;;3.30;1.88;;;;;;;;;;6173415;23;20025;-61
2023/04/09 16:41:11;;;;;;;4.85;2.00;;;;;;;;;;6171702;23;20029;-59
2023/04/09 16:43:49;;;;;;;2.42;1.85;;;;;;;;;;6172944;23;20021;-59
2023/04/09 16:46:23;;;;;;;5.78;2.50;;;;;;;;;;6172453;23;20027;-59
2023/04/09 16:48:50;;;;;;;;;;;;;;;;;;6172428;23;20060;-59
2023/04/09 16:51:18;;;;;;;3.15;1.85;;;;;;;;;;6170516;23;19916;-59
2023/04/09 16:53:52;;;;;;;2.83;1.67;;;;;;;;;;6148662;23;20076;-59
2023/04/09 16:56:19;;;;;;;4.93;1.92;;;;;;;;;;6171763;23;20399;-57
2023/04/09 16:58:53;;;;;;;1.80;1.63;;;;;;;;;;6173023;23;20053;-61
2023/04/09 17:01:21;;;;;;;2.10;1.50;;;;;;;;;;6171412;23;20113;-61
2023/04/09 17:03:48;;;;;;;2.20;1.77;;;;;;;;;;6171783;23;20033;-61
2023/04/09 17:06:22;;;;;;;3.17;1.83;;;;;;;;;;6173379;23;20025;-61
2023/04/09 17:08:49;;;;;;;2.78;1.88;;;;;;;;;;6173459;23;20422;-61